Time;durP1;ratioP1;P1;durP2;ratioP2;P2;SDS_P1;SDS_P2;PMS_P1;PMS_P2;Temp;Humidity;BMP_temperature;BMP_pressure;BME280_temperature;BME280_humidity;BME280_pressure;Samples;Min_cycle;Max_cycle;Signal;HPM_P1;HPM_P2
2023/04/15 00:00:42;;;;;;;6.03;4.30;;;10.20;99.90;;;;;;6155756;23;20089;-66
2023/04/15 00:03:08;;;;;;;6.18;4.50;;;10.20;99.90;;;;;;6155646;23;20033;-65
2023/04/15 00:05:34;;;;;;;5.90;3.63;;;10.20;99.90;;;;;;6155243;23;20002;-66
2023/04/15 00:08:00;;;;;;;6.45;4.57;;;10.20;99.90;;;;;;6155248;23;20013;-66
2023/04/15 00:10:26;;;;;;;6.27;4.23;;;10.20;99.90;;;;;;6155482;23;20022;-66
2023/04/15 00:12:52;;;;;;;5.95;4.32;;;10.20;99.90;;;;;;6155352;23;20056;-66
2023/04/15 00:15:18;;;;;;;5.57;4.60;;;10.20;99.90;;;;;;6155497;23;19997;-66
2023/04/15 00:17:44;;;;;;;7.68;5.53;;;10.20;99.90;;;;;;6155517;23;20005;-66
2023/04/15 00:20:10;;;;;;;6.43;4.80;;;10.20;99.90;;;;;;6155445;23;20009;-66
2023/04/15 00:22:36;;;;;;;5.80;4.78;;;10.10;99.90;;;;;;6155592;23;20100;-66
2023/04/15 00:25:02;;;;;;;6.23;4.90;;;10.10;99.90;;;;;;6155398;23;20076;-66
2023/04/15 00:27:28;;;;;;;4.70;3.70;;;10.10;99.90;;;;;;6129051;23;20017;-66
2023/04/15 00:29:55;;;;;;;7.87;4.60;;;10.10;99.90;;;;;;6155106;23;19997;-66
2023/04/15 00:32:21;;;;;;;7.77;3.80;;;10.10;99.90;;;;;;6155589;23;20017;-66
2023/04/15 00:34:46;;;;;;;7.13;4.87;;;10.10;99.90;;;;;;6155313;23;20069;-66
2023/04/15 00:37:12;;;;;;;6.47;4.40;;;10.10;99.90;;;;;;6155073;23;20005;-66
2023/04/15 00:39:38;;;;;;;7.75;4.15;;;10.10;99.90;;;;;;6155541;23;20069;-66
2023/04/15 00:42:04;;;;;;;6.80;4.20;;;10.10;99.90;;;;;;6154904;23;20057;-66
2023/04/15 00:44:31;;;;;;;5.82;4.10;;;10.10;99.90;;;;;;6155493;23;20097;-66
2023/04/15 00:46:57;;;;;;;5.47;3.93;;;10.10;99.90;;;;;;6155432;23;20013;-66
2023/04/15 00:49:23;;;;;;;6.32;4.10;;;10.10;99.90;;;;;;6155368;23;20032;-66
2023/04/15 00:51:50;;;;;;;6.23;3.83;;;10.10;99.90;;;;;;6155320;23;20325;-66
2023/04/15 00:54:16;;;;;;;5.23;4.10;;;10.10;99.90;;;;;;6155215;23;20001;-66
2023/04/15 00:56:41;;;;;;;7.80;4.13;;;10.10;99.90;;;;;;6128718;23;20016;-66
2023/04/15 00:59:08;;;;;;;5.23;3.87;;;10.10;99.90;;;;;;6152252;23;20044;-66
2023/04/15 01:01:37;;;;;;;5.40;3.90;;;10.10;99.90;;;;;;6151937;23;20010;-67
2023/04/15 01:04:03;;;;;;;5.50;4.00;;;10.10;99.90;;;;;;6152588;23;19998;-66
2023/04/15 01:06:31;;;;;;;6.00;4.07;;;10.10;99.90;;;;;;6156603;23;20052;-66
2023/04/15 01:08:57;;;;;;;6.85;4.65;;;10.10;99.90;;;;;;6157075;23;20041;-66
2023/04/15 01:11:24;;;;;;;5.77;4.43;;;10.10;99.90;;;;;;6156949;23;20032;-66
2023/04/15 01:13:51;;;;;;;8.03;3.97;;;10.10;99.90;;;;;;6156710;23;20076;-66
2023/04/15 01:16:18;;;;;;;7.03;4.10;;;10.10;99.90;;;;;;6156949;23;20025;-66
2023/04/15 01:18:44;;;;;;;4.67;3.40;;;10.10;99.90;;;;;;6156600;23;20005;-66
2023/04/15 01:21:10;;;;;;;4.60;3.30;;;10.00;99.90;;;;;;6156546;23;20510;-67
2023/04/15 01:23:37;;;;;;;3.93;3.20;;;10.00;99.90;;;;;;6156766;23;20006;-66
2023/04/15 01:26:03;;;;;;;7.17;3.80;;;10.00;99.90;;;;;;6156801;23;20057;-66
2023/04/15 01:28:30;;;;;;;4.72;3.58;;;10.00;99.90;;;;;;6156394;23;20372;-66
2023/04/15 01:31:12;;;;;;;5.35;3.30;;;10.00;99.90;;;;;;6156941;23;20005;-66
2023/04/15 01:33:41;;;;;;;9.65;3.40;;;10.10;99.90;;;;;;6156771;23;20005;-66
2023/04/15 01:36:08;;;;;;;5.35;3.15;;;10.10;99.80;;;;;;6156666;23;19997;-66
2023/04/15 01:38:35;;;;;;;4.35;3.00;;;10.10;99.80;;;;;;6156780;23;20301;-66
2023/04/15 01:41:03;;;;;;;6.43;3.10;;;10.10;99.70;;;;;;6156450;23;20013;-66
2023/04/15 01:43:28;;;;;;;3.43;2.63;;;10.10;99.70;;;;;;6156437;23;20450;-66
2023/04/15 01:45:55;;;;;;;4.10;2.80;;;10.00;99.60;;;;;;6156515;23;20001;-66
2023/04/15 01:48:21;;;;;;;4.00;3.07;;;10.00;99.70;;;;;;6156682;23;20387;-66
2023/04/15 01:50:47;;;;;;;6.38;3.50;;;10.00;99.70;;;;;;6156603;23;20072;-66
2023/04/15 01:53:14;;;;;;;7.27;3.30;;;10.00;99.70;;;;;;6156914;23;20389;-66
2023/04/15 01:55:40;;;;;;;4.25;3.30;;;10.00;99.60;;;;;;6157089;23;20451;-66
2023/04/15 01:58:06;;;;;;;4.67;3.30;;;10.00;99.60;;;;;;6156763;23;20072;-66
2023/04/15 02:00:32;;;;;;;5.28;3.38;;;9.90;99.60;;;;;;6156718;23;20336;-66
2023/04/15 02:02:58;;;;;;;6.53;4.10;;;9.90;99.60;;;;;;6156594;23;19998;-66
2023/04/15 02:05:24;;;;;;;4.90;3.77;;;9.90;99.70;;;;;;6156710;23;20009;-66
2023/04/15 02:07:50;;;;;;;8.60;3.73;;;9.90;99.80;;;;;;6156743;23;20025;-66
2023/04/15 02:10:16;;;;;;;8.37;3.20;;;10.00;99.90;;;;;;6156517;23;20428;-66
2023/04/15 02:12:42;;;;;;;5.07;3.60;;;9.90;99.80;;;;;;6156676;23;20101;-66
2023/04/15 02:15:09;;;;;;;5.53;3.27;;;9.90;99.90;;;;;;6155842;23;20483;-66
2023/04/15 02:17:36;;;;;;;5.57;3.30;;;9.90;99.90;;;;;;6156219;23;20005;-66
2023/04/15 02:20:04;;;;;;;5.07;3.90;;;9.90;99.90;;;;;;6156483;23;20024;-66
2023/04/15 02:22:30;;;;;;;4.60;3.10;;;9.90;99.90;;;;;;6156880;23;20006;-65
2023/04/15 02:24:56;;;;;;;6.30;3.50;;;9.90;99.90;;;;;;6156455;23;20002;-66
2023/04/15 02:27:22;;;;;;;5.40;3.70;;;9.90;99.90;;;;;;6155784;23;20048;-66
2023/04/15 02:29:50;;;;;;;5.63;3.40;;;9.90;99.90;;;;;;6156349;23;19997;-66
2023/04/15 02:32:16;;;;;;;4.40;3.38;;;9.90;99.90;;;;;;6156561;23;20339;-66
2023/04/15 02:34:41;;;;;;;5.82;3.30;;;9.90;99.90;;;;;;6156327;23;19998;-66
2023/04/15 02:37:09;;;;;;;5.27;3.43;;;9.80;99.90;;;;;;6156223;23;20020;-66
2023/04/15 02:39:34;;;;;;;4.78;3.30;;;9.80;99.90;;;;;;6156240;23;20416;-66
2023/04/15 02:42:01;;;;;;;5.17;3.20;;;9.80;99.90;;;;;;6156219;23;20080;-66
2023/04/15 02:44:27;;;;;;;4.83;3.40;;;9.80;99.90;;;;;;6156020;23;19998;-66
2023/04/15 02:46:53;;;;;;;4.50;3.45;;;9.80;99.90;;;;;;6156301;23;20125;-67
2023/04/15 02:49:22;;;;;;;4.05;2.90;;;9.80;99.90;;;;;;6156326;23;20076;-66
2023/04/15 02:51:48;;;;;;;4.17;2.90;;;9.80;99.90;;;;;;6155811;23;20025;-66
2023/04/15 02:54:24;;;;;;;4.30;3.27;;;9.80;99.90;;;;;;6156158;23;20002;-66
2023/04/15 02:56:54;;;;;;;5.38;3.13;;;9.80;99.90;;;;;;6156288;23;20001;-66
2023/04/15 02:59:20;;;;;;;6.00;2.97;;;9.70;99.90;;;;;;6130149;23;20380;-66
2023/04/15 03:01:45;;;;;;;3.53;3.00;;;9.70;99.90;;;;;;6155882;23;20028;-66
2023/04/15 03:04:12;;;;;;;3.77;2.97;;;9.70;99.90;;;;;;6156149;23;20004;-66
2023/04/15 03:06:37;;;;;;;4.37;2.73;;;9.70;99.90;;;;;;6155833;23;20009;-66
2023/04/15 03:09:03;;;;;;;4.47;3.03;;;9.70;99.90;;;;;;6129554;23;20104;-66
2023/04/15 03:11:30;;;;;;;5.28;2.90;;;9.70;99.90;;;;;;6156144;23;20072;-66
2023/04/15 03:13:57;;;;;;;6.07;2.93;;;9.70;99.90;;;;;;6155978;23;20037;-66
2023/04/15 03:16:23;;;;;;;4.22;2.85;;;9.60;99.90;;;;;;6155910;23;20431;-65
2023/04/15 03:18:49;;;;;;;3.13;2.50;;;9.60;99.90;;;;;;6155994;23;20424;-66
2023/04/15 03:21:15;;;;;;;4.27;2.77;;;9.60;99.80;;;;;;6155702;23;20005;-66
2023/04/15 03:23:40;;;;;;;3.08;2.50;;;9.60;99.80;;;;;;6155900;23;20002;-66
2023/04/15 03:26:06;;;;;;;3.27;2.53;;;9.60;99.80;;;;;;6155843;23;20001;-66
2023/04/15 03:28:32;;;;;;;3.33;2.50;;;9.60;99.80;;;;;;6155828;23;20002;-66
2023/04/15 03:30:58;;;;;;;3.97;2.47;;;9.60;99.80;;;;;;6155790;23;20002;-66
2023/04/15 03:33:24;;;;;;;3.30;2.53;;;9.70;99.80;;;;;;6155955;23;20044;-66
2023/04/15 03:35:51;;;;;;;3.47;2.53;;;9.60;99.70;;;;;;6155768;23;19997;-66
2023/04/15 03:38:17;;;;;;;3.73;2.30;;;9.60;99.80;;;;;;6155933;23;20057;-66
2023/04/15 03:40:45;;;;;;;4.93;3.00;;;9.60;99.70;;;;;;6155853;23;20001;-66
2023/04/15 03:43:11;;;;;;;3.43;2.43;;;9.60;99.70;;;;;;6155791;23;20029;-66
2023/04/15 03:45:36;;;;;;;2.87;2.33;;;9.60;99.80;;;;;;6155677;23;20014;-66
2023/04/15 03:48:02;;;;;;;3.92;2.28;;;9.70;99.80;;;;;;6155655;23;20020;-66
2023/04/15 03:50:28;;;;;;;2.63;2.03;;;9.60;99.80;;;;;;6155611;23;20014;-66
2023/04/15 03:52:54;;;;;;;3.23;2.37;;;9.60;99.80;;;;;;6155428;23;20063;-66
2023/04/15 03:55:20;;;;;;;4.23;2.40;;;9.70;99.80;;;;;;6155469;23;20005;-66
2023/04/15 03:57:45;;;;;;;7.07;4.10;;;9.70;99.70;;;;;;6155878;23;20436;-66
2023/04/15 04:00:11;;;;;;;5.43;4.23;;;9.70;99.70;;;;;;6155456;23;20072;-66
2023/04/15 04:02:37;;;;;;;5.10;4.20;;;9.70;99.80;;;;;;6155706;23;20005;-66
2023/04/15 04:05:03;;;;;;;4.10;3.20;;;9.70;99.80;;;;;;6155314;23;20002;-66
2023/04/15 04:07:29;;;;;;;5.33;3.93;;;9.70;99.90;;;;;;6155597;23;20428;-66
2023/04/15 04:09:57;;;;;;;5.53;3.30;;;9.70;99.80;;;;;;6155303;23;20006;-66
2023/04/15 04:12:22;;;;;;;3.83;3.23;;;9.70;99.90;;;;;;6155356;23;20005;-66
2023/04/15 04:14:48;;;;;;;4.77;3.30;;;9.70;99.90;;;;;;6155706;23;20327;-66
2023/04/15 04:17:14;;;;;;;4.07;2.70;;;9.70;99.90;;;;;;6155305;23;20064;-66
2023/04/15 04:19:39;;;;;;;3.37;2.47;;;9.70;99.90;;;;;;6155615;23;20424;-67
2023/04/15 04:22:05;;;;;;;2.97;2.53;;;9.70;99.90;;;;;;6155272;23;20076;-66
2023/04/15 04:24:31;;;;;;;7.33;6.63;;;9.70;99.90;;;;;;6155341;23;20001;-66
2023/04/15 04:26:57;;;;;;;6.07;3.00;;;9.70;99.90;;;;;;6155432;23;20072;-66
2023/04/15 04:29:23;;;;;;;3.37;2.10;;;9.70;99.90;;;;;;6155386;23;20194;-66
2023/04/15 04:31:49;;;;;;;2.97;2.13;;;9.70;99.90;;;;;;6155461;23;20005;-67
2023/04/15 04:34:15;;;;;;;2.83;1.93;;;9.70;99.90;;;;;;6155386;23;20010;-66
2023/04/15 04:36:41;;;;;;;3.00;2.20;;;9.70;99.90;;;;;;6155335;23;20491;-67
2023/04/15 04:39:07;;;;;;;4.53;2.33;;;9.80;99.90;;;;;;6156117;23;20028;-67
2023/04/15 04:41:32;;;;;;;3.40;2.58;;;9.70;99.90;;;;;;6157486;23;20368;-66
2023/04/15 04:43:58;;;;;;;3.43;2.40;;;9.80;99.80;;;;;;6157536;23;20373;-66
2023/04/15 04:46:24;;;;;;;3.53;2.50;;;9.70;99.80;;;;;;6157128;23;20067;-67
2023/04/15 04:48:50;;;;;;;5.93;2.57;;;9.70;99.80;;;;;;6157199;23;19998;-67
2023/04/15 04:51:15;;;;;;;4.10;2.28;;;9.70;99.80;;;;;;6156961;23;20025;-66
2023/04/15 04:53:42;;;;;;;2.93;2.30;;;9.70;99.90;;;;;;6157476;23;20080;-67
2023/04/15 04:56:08;;;;;;;3.10;2.40;;;9.70;99.90;;;;;;6131216;23;20376;-67
2023/04/15 04:58:33;;;;;;;2.60;2.40;;;9.70;99.80;;;;;;6157363;23;20464;-66
2023/04/15 05:00:59;;;;;;;3.23;2.10;;;9.70;99.70;;;;;;6156922;23;20036;-67
2023/04/15 05:03:26;;;;;;;3.40;2.70;;;9.70;99.80;;;;;;6157091;23;20002;-66
2023/04/15 05:05:51;;;;;;;4.00;2.60;;;9.70;99.80;;;;;;6157263;23;20039;-67
2023/04/15 05:08:17;;;;;;;4.30;2.17;;;9.70;99.80;;;;;;6156985;23;20466;-66
2023/04/15 05:10:43;;;;;;;4.87;2.20;;;9.70;99.80;;;;;;6157063;23;20002;-66
2023/04/15 05:13:09;;;;;;;4.30;2.10;;;9.70;99.70;;;;;;6157022;23;20076;-67
2023/04/15 05:15:38;;;;;;;3.50;2.15;;;9.70;99.70;;;;;;6157049;23;20072;-66
2023/04/15 05:18:04;;;;;;;3.83;2.27;;;9.70;99.60;;;;;;6156960;23;20016;-67
2023/04/15 05:20:30;;;;;;;4.47;2.00;;;9.70;99.40;;;;;;6157096;23;20005;-67
2023/04/15 05:22:55;;;;;;;2.87;1.90;;;9.70;99.40;;;;;;6157079;23;20340;-67
2023/04/15 05:25:21;;;;;;;3.97;2.50;;;9.70;99.50;;;;;;6156895;23;20376;-66
2023/04/15 05:27:47;;;;;;;3.47;2.43;;;9.70;99.50;;;;;;6156947;23;20016;-66
2023/04/15 05:30:13;;;;;;;3.97;2.30;;;9.70;99.40;;;;;;6157035;23;20008;-67
2023/04/15 05:32:39;;;;;;;3.90;2.20;;;9.70;99.50;;;;;;6156789;23;20005;-66
2023/04/15 05:35:06;;;;;;;3.07;2.07;;;9.70;99.50;;;;;;6156763;23;20029;-67
2023/04/15 05:37:32;;;;;;;4.63;2.65;;;9.70;99.50;;;;;;6156470;23;20001;-67
2023/04/15 05:39:58;;;;;;;3.53;2.30;;;9.70;99.60;;;;;;6156383;23;20005;-67
2023/04/15 05:42:24;;;;;;;4.30;2.67;;;9.70;99.70;;;;;;6130474;23;20009;-66
2023/04/15 05:44:50;;;;;;;6.13;2.50;;;9.70;99.60;;;;;;6156965;23;20005;-67
2023/04/15 05:47:15;;;;;;;4.15;2.35;;;9.70;99.50;;;;;;6156712;23;20384;-67
2023/04/15 05:49:41;;;;;;;3.70;2.30;;;9.70;99.40;;;;;;6156649;23;20081;-67
2023/04/15 05:52:07;;;;;;;2.63;1.75;;;9.70;99.40;;;;;;6156542;23;20089;-66
2023/04/15 05:54:33;;;;;;;3.10;2.13;;;9.80;99.50;;;;;;6156992;23;20006;-67
2023/04/15 05:56:58;;;;;;;2.80;1.63;;;9.80;99.20;;;;;;6156601;23;20336;-66
2023/04/15 05:59:24;;;;;;;5.77;1.83;;;9.80;99.00;;;;;;6157047;23;20006;-67
2023/04/15 06:01:51;;;;;;;4.18;1.58;;;9.80;98.80;;;;;;6156744;23;20089;-67
2023/04/15 06:04:16;;;;;;;3.27;1.80;;;9.80;98.80;;;;;;6156179;23;20056;-67
2023/04/15 06:06:42;;;;;;;4.13;2.13;;;9.80;98.70;;;;;;6156767;23;20009;-67
2023/04/15 06:09:08;;;;;;;2.77;1.97;;;9.80;98.70;;;;;;6156506;23;20006;-66
2023/04/15 06:11:34;;;;;;;4.17;2.50;;;9.90;98.90;;;;;;6156747;23;20037;-66
2023/04/15 06:14:00;;;;;;;5.40;2.20;;;9.90;99.00;;;;;;6156490;23;20006;-67
2023/04/15 06:16:26;;;;;;;3.77;3.37;;;9.90;99.00;;;;;;6155947;23;20009;-66
2023/04/15 06:18:51;;;;;;;5.63;3.27;;;9.90;99.10;;;;;;6153611;23;20084;-69
2023/04/15 06:21:17;;;;;;;7.00;4.00;;;10.00;99.20;;;;;;6155546;23;19998;-67
2023/04/15 06:23:43;;;;;;;7.13;4.30;;;10.10;99.10;;;;;;6155789;23;20005;-67
2023/04/15 06:26:09;;;;;;;5.40;3.85;;;10.10;99.10;;;;;;6155669;23;20048;-67
2023/04/15 06:28:35;;;;;;;5.70;4.33;;;10.10;99.10;;;;;;6154956;23;19997;-67
2023/04/15 06:31:01;;;;;;;4.60;2.87;;;10.20;99.10;;;;;;6152715;23;20010;-66
2023/04/15 06:33:27;;;;;;;2.83;2.30;;;10.20;98.90;;;;;;6152287;23;20002;-66
2023/04/15 06:35:52;;;;;;;2.60;1.80;;;10.20;98.80;;;;;;6151287;23;20041;-67
2023/04/15 06:38:18;;;;;;;5.97;2.30;;;10.30;98.90;;;;;;6151120;23;20018;-67
2023/04/15 06:40:44;;;;;;;2.60;1.70;;;10.30;98.90;;;;;;6154961;23;20028;-67
2023/04/15 06:43:10;;;;;;;2.38;1.98;;;10.30;98.30;;;;;;6156027;23;20432;-67
2023/04/15 06:45:36;;;;;;;3.92;1.52;;;10.40;98.30;;;;;;6155821;23;20081;-66
2023/04/15 06:48:01;;;;;;;2.60;1.60;;;10.40;98.10;;;;;;6156237;23;20061;-67
2023/04/15 06:50:27;;;;;;;6.37;1.60;;;10.40;97.90;;;;;;6155722;23;20450;-66
2023/04/15 06:52:54;;;;;;;3.53;2.00;;;10.40;97.70;;;;;;6155812;23;20088;-67
2023/04/15 06:55:20;;;;;;;2.85;1.60;;;10.50;97.50;;;;;;6153338;23;20306;-67
2023/04/15 06:57:46;;;;;;;2.13;1.70;;;10.50;97.40;;;;;;6155145;23;20128;-69
2023/04/15 07:00:12;;;;;;;1.90;1.55;;;10.50;97.40;;;;;;6155303;23;20052;-69
2023/04/15 07:02:38;;;;;;;3.03;1.90;;;10.50;97.40;;;;;;6155055;23;20029;-67
2023/04/15 07:05:05;;;;;;;3.40;2.10;;;10.50;97.30;;;;;;6155157;23;20068;-68
2023/04/15 07:07:30;;;;;;;2.78;1.70;;;10.60;97.30;;;;;;6155258;23;20440;-68
2023/04/15 07:09:56;;;;;;;2.28;1.50;;;10.60;97.40;;;;;;6155886;23;20012;-67
2023/04/15 07:12:22;;;;;;;4.80;1.70;;;10.60;97.30;;;;;;6155543;23;20068;-71
2023/04/15 07:14:48;;;;;;;3.23;1.83;;;10.70;97.40;;;;;;6155304;23;20002;-72
2023/04/15 07:17:14;;;;;;;3.10;1.60;;;10.70;97.20;;;;;;6154912;23;20010;-68
2023/04/15 07:19:40;;;;;;;5.53;1.52;;;10.80;97.00;;;;;;6155122;23;20012;-70
2023/04/15 07:22:06;;;;;;;2.22;1.77;;;10.80;97.20;;;;;;6155673;23;20005;-71
2023/04/15 07:24:32;;;;;;;2.97;2.10;;;10.80;96.90;;;;;;6155487;23;20013;-67
2023/04/15 07:26:58;;;;;;;3.22;1.80;;;10.90;96.80;;;;;;6155679;23;20491;-67
2023/04/15 07:29:25;;;;;;;4.72;1.50;;;10.90;96.90;;;;;;6155707;23;20009;-67
2023/04/15 07:31:50;;;;;;;2.20;1.20;;;11.00;96.80;;;;;;6155655;23;20001;-67
2023/04/15 07:34:17;;;;;;;3.13;1.55;;;11.00;96.50;;;;;;6155845;23;20012;-68
2023/04/15 07:36:44;;;;;;;2.80;1.42;;;11.10;96.50;;;;;;6155972;23;20087;-68
2023/04/15 07:39:10;;;;;;;3.78;1.50;;;11.10;96.50;;;;;;6155848;23;20009;-68
2023/04/15 07:41:36;;;;;;;3.95;1.65;;;11.20;96.40;;;;;;6156137;23;20019;-67
2023/04/15 07:44:02;;;;;;;3.42;1.60;;;11.30;96.50;;;;;;6155897;23;20012;-68
2023/04/15 07:46:28;;;;;;;3.33;2.03;;;11.30;96.50;;;;;;6155127;23;20350;-67
2023/04/15 07:48:54;;;;;;;4.20;2.42;;;11.30;96.60;;;;;;6155275;23;20305;-67
2023/04/15 07:51:20;;;;;;;3.80;3.03;;;11.30;96.70;;;;;;6155537;23;20017;-67
2023/04/15 07:53:47;;;;;;;4.47;2.80;;;11.30;96.70;;;;;;6155494;23;20005;-67
2023/04/15 07:56:13;;;;;;;5.32;3.28;;;11.40;96.60;;;;;;6155586;23;20062;-68
2023/04/15 07:58:39;;;;;;;5.80;2.65;;;11.40;96.50;;;;;;6155349;23;20005;-67
2023/04/15 08:01:05;;;;;;;2.83;2.40;;;11.40;96.90;;;;;;6155160;23;19998;-67
2023/04/15 08:03:31;;;;;;;9.63;2.60;;;11.50;96.80;;;;;;6129169;23;20045;-67
2023/04/15 08:05:57;;;;;;;5.97;2.50;;;11.50;96.60;;;;;;6155259;23;20008;-67
2023/04/15 08:08:23;;;;;;;7.20;2.13;;;11.50;96.50;;;;;;6155191;23;20021;-68
2023/04/15 08:10:50;;;;;;;4.80;2.97;;;11.50;96.40;;;;;;6155168;23;20001;-68
2023/04/15 08:13:16;;;;;;;5.60;2.90;;;11.50;96.10;;;;;;6155275;23;20005;-68
2023/04/15 08:15:42;;;;;;;5.18;3.22;;;11.60;96.10;;;;;;6155513;23;20089;-67
2023/04/15 08:18:07;;;;;;;6.90;3.25;;;11.50;96.20;;;;;;6155074;23;20008;-68
2023/04/15 08:20:33;;;;;;;5.22;3.28;;;11.60;96.30;;;;;;6154804;23;19997;-68
2023/04/15 08:22:59;;;;;;;4.20;2.72;;;11.60;96.40;;;;;;6154949;23;20029;-68
2023/04/15 08:25:26;;;;;;;4.82;2.92;;;11.60;96.60;;;;;;6154957;23;19998;-67
2023/04/15 08:27:54;;;;;;;7.82;2.80;;;11.60;96.60;;;;;;6154973;23;20021;-67
2023/04/15 08:30:20;;;;;;;3.50;2.70;;;11.60;96.70;;;;;;6153562;23;20069;-67
2023/04/15 08:32:46;;;;;;;4.60;2.63;;;11.70;96.80;;;;;;6155269;23;20002;-68
2023/04/15 08:35:12;;;;;;;3.92;2.15;;;11.60;96.90;;;;;;6155562;23;20053;-67
2023/04/15 08:37:38;;;;;;;4.97;1.60;;;11.70;96.50;;;;;;6154963;23;20302;-67
2023/04/15 08:40:04;;;;;;;3.90;1.60;;;11.70;96.20;;;;;;6155362;23;20004;-67
2023/04/15 08:42:35;;;;;;;4.53;1.50;;;11.70;96.00;;;;;;6155383;23;20005;-68
2023/04/15 08:45:04;;;;;;;6.72;1.73;;;11.70;95.80;;;;;;6155174;23;19998;-67
2023/04/15 08:47:30;;;;;;;4.93;2.15;;;11.70;95.80;;;;;;6155704;23;20009;-67
2023/04/15 08:49:57;;;;;;;5.38;2.53;;;11.80;95.80;;;;;;6155305;23;20026;-68
2023/04/15 08:52:26;;;;;;;5.45;3.00;;;11.80;95.90;;;;;;6155305;23;20009;-68
2023/04/15 08:54:57;;;;;;;8.07;3.67;;;11.80;96.00;;;;;;6155572;23;20009;-67
2023/04/15 08:57:30;;;;;;;6.90;2.80;;;11.80;96.00;;;;;;6155413;23;20336;-67
2023/04/15 08:59:56;;;;;;;6.10;2.28;;;11.80;96.30;;;;;;6155201;23;20021;-67
2023/04/15 09:02:23;;;;;;;4.70;2.63;;;11.90;96.60;;;;;;6155198;23;20017;-67
2023/04/15 09:04:49;;;;;;;6.35;2.55;;;11.90;96.50;;;;;;6155517;23;20002;-68
2023/04/15 09:07:15;;;;;;;5.03;2.25;;;11.90;96.40;;;;;;6155055;23;20022;-68
2023/04/15 09:09:41;;;;;;;8.07;2.30;;;11.90;96.50;;;;;;6155277;23;20006;-67
2023/04/15 09:12:07;;;;;;;6.35;2.42;;;11.90;96.60;;;;;;6155507;23;19997;-67
2023/04/15 09:14:33;;;;;;;2.67;1.45;;;12.00;96.50;;;;;;6155485;23;20008;-68
2023/04/15 09:17:02;;;;;;;4.85;1.90;;;12.00;96.30;;;;;;6155241;23;20009;-67
2023/04/15 09:19:28;;;;;;;3.40;2.05;;;12.10;96.00;;;;;;6155664;23;20031;-67
2023/04/15 09:21:56;;;;;;;7.32;2.58;;;12.10;96.10;;;;;;6155013;23;20009;-68
2023/04/15 09:24:22;;;;;;;6.53;2.22;;;12.10;96.20;;;;;;6155262;23;20017;-68
2023/04/15 09:26:56;;;;;;;9.88;1.90;;;12.10;96.30;;;;;;6156903;23;20020;-68
2023/04/15 09:29:25;;;;;;;3.45;1.80;;;12.20;96.20;;;;;;6156907;23;19998;-68
2023/04/15 09:31:51;;;;;;;4.47;2.00;;;12.20;96.20;;;;;;6157204;23;20008;-68
2023/04/15 09:34:18;;;;;;;5.38;1.75;;;12.20;96.10;;;;;;6157013;23;20305;-67
2023/04/15 09:36:46;;;;;;;6.40;2.15;;;12.20;96.10;;;;;;6157096;23;20351;-68
2023/04/15 09:39:12;;;;;;;9.50;1.85;;;12.30;95.90;;;;;;6157044;23;20428;-67
2023/04/15 09:41:39;;;;;;;6.97;1.42;;;12.30;95.80;;;;;;6157112;23;20056;-67
2023/04/15 09:44:05;;;;;;;6.32;1.55;;;12.30;95.80;;;;;;6156766;23;20006;-67
2023/04/15 09:46:45;;;;;;;6.05;2.10;;;12.40;95.80;;;;;;6157317;23;20442;-67
2023/04/15 09:49:12;;;;;;;3.78;1.55;;;12.40;95.80;;;;;;6156991;23;20012;-67
2023/04/15 09:51:38;;;;;;;3.38;1.48;;;12.40;95.90;;;;;;6156403;23;20450;-67
2023/04/15 09:54:04;;;;;;;10.45;2.05;;;12.40;95.80;;;;;;6157010;23;20012;-67
2023/04/15 09:56:41;;;;;;;6.57;1.65;;;12.40;96.00;;;;;;6156770;23;20001;-68
2023/04/15 09:59:10;;;;;;;8.70;1.95;;;12.50;95.80;;;;;;6156822;23;20061;-67
2023/04/15 10:01:37;;;;;;;5.47;1.60;;;12.50;96.00;;;;;;6130430;23;20018;-67
2023/04/15 10:04:04;;;;;;;4.35;1.50;;;12.50;95.80;;;;;;6156801;23;20072;-68
2023/04/15 10:06:30;;;;;;;6.32;1.33;;;12.50;95.70;;;;;;6156946;23;20014;-67
2023/04/15 10:08:57;;;;;;;4.90;1.30;;;12.50;95.60;;;;;;6156879;23;20441;-67
2023/04/15 10:11:23;;;;;;;4.28;1.05;;;12.50;95.40;;;;;;6156762;23;20309;-67
2023/04/15 10:13:50;;;;;;;4.43;1.88;;;12.50;95.30;;;;;;6156372;23;20076;-67
2023/04/15 10:16:18;;;;;;;5.57;1.63;;;12.50;95.40;;;;;;6156703;23;20002;-67
2023/04/15 10:18:46;;;;;;;4.40;1.70;;;12.50;95.60;;;;;;6156643;23;20056;-67
2023/04/15 10:21:15;;;;;;;2.97;0.98;;;12.50;95.60;;;;;;6156725;23;20424;-67
2023/04/15 10:23:41;;;;;;;6.57;1.80;;;12.50;95.70;;;;;;6156581;23;20008;-67
2023/04/15 10:26:08;;;;;;;6.22;1.50;;;12.60;95.70;;;;;;6156809;23;20040;-67
2023/04/15 10:28:34;;;;;;;4.22;1.42;;;12.60;95.80;;;;;;6156362;23;20017;-68
2023/04/15 10:31:01;;;;;;;9.55;1.80;;;12.60;95.70;;;;;;6156516;23;20002;-67
2023/04/15 10:33:27;;;;;;;6.18;2.70;;;12.70;95.90;;;;;;6154798;23;20076;-67
2023/04/15 10:35:55;;;;;;;6.65;1.48;;;12.80;96.30;;;;;;6156044;23;20009;-67
2023/04/15 10:38:37;;;;;;;3.97;1.30;;;12.90;95.90;;;;;;6155772;23;20333;-67
2023/04/15 10:41:22;;;;;;;5.00;1.25;;;12.90;95.50;;;;;;6156380;23;20476;-68
2023/04/15 10:44:04;;;;;;;6.22;1.45;;;13.00;95.40;;;;;;6156437;23;20081;-68
2023/04/15 10:46:37;;;;;;;3.78;1.70;;;13.10;95.30;;;;;;6156141;23;20016;-67
2023/04/15 10:49:15;;;;;;;3.05;1.17;;;13.10;95.10;;;;;;6156459;23;20032;-68
2023/04/15 10:51:52;;;;;;;7.25;1.40;;;13.10;94.70;;;;;;6156172;23;20105;-67
2023/04/15 10:54:24;;;;;;;3.83;0.95;;;13.10;94.80;;;;;;6156381;23;20364;-68
2023/04/15 10:57:07;;;;;;;6.80;0.95;;;13.10;94.40;;;;;;6156038;23;20005;-68
2023/04/15 10:59:57;;;;;;;1.67;0.70;;;13.10;93.60;;;;;;6155954;23;20378;-68
2023/04/15 11:02:39;;;;;;;4.88;1.00;;;13.00;93.20;;;;;;6156041;23;20005;-67
2023/04/15 11:05:06;;;;;;;2.50;0.80;;;12.90;93.00;;;;;;6156152;23;20004;-68
2023/04/15 11:07:45;;;;;;;2.67;1.10;;;12.90;93.00;;;;;;6156268;23;20022;-67
2023/04/15 11:10:16;;;;;;;2.63;0.90;;;12.80;93.10;;;;;;6155949;23;20006;-68
2023/04/15 11:12:46;;;;;;;4.22;1.23;;;12.70;93.50;;;;;;6156295;23;20052;-67
2023/04/15 11:15:33;;;;;;;2.72;0.88;;;12.60;93.90;;;;;;6155776;23;20029;-67
2023/04/15 11:18:29;;;;;;;5.03;1.05;;;12.50;94.10;;;;;;6156120;23;20009;-67
2023/04/15 11:21:00;;;;;;;2.05;0.98;;;12.40;94.40;;;;;;6138006;23;20068;-67
2023/04/15 11:23:32;;;;;;;2.95;0.80;;;12.40;94.80;;;;;;6155909;23;20040;-67
2023/04/15 11:25:59;;;;;;;5.15;0.95;;;12.30;95.10;;;;;;6155988;23;19998;-67
2023/04/15 11:28:27;;;;;;;2.63;0.98;;;12.30;95.20;;;;;;6155388;23;20025;-67
2023/04/15 11:30:54;;;;;;;3.13;1.20;;;12.20;95.30;;;;;;6155827;23;20002;-67
2023/04/15 11:33:21;;;;;;;3.20;1.10;;;12.20;95.90;;;;;;6155915;23;20001;-68
2023/04/15 11:35:47;;;;;;;3.72;1.48;;;12.10;95.80;;;;;;6155946;23;19997;-68
2023/04/15 11:38:14;;;;;;;1.55;0.73;;;12.10;95.90;;;;;;6155936;23;19997;-67
2023/04/15 11:40:40;;;;;;;4.07;0.80;;;12.10;96.10;;;;;;6155797;23;20005;-67
2023/04/15 11:43:12;;;;;;;3.53;0.93;;;12.10;96.10;;;;;;6155829;23;20001;-67
2023/04/15 11:46:04;;;;;;;4.45;1.10;;;12.10;96.10;;;;;;6155392;23;20040;-68
2023/04/15 11:48:33;;;;;;;4.85;1.27;;;12.10;96.10;;;;;;6155036;23;20017;-67
2023/04/15 11:51:00;;;;;;;3.92;1.20;;;12.10;95.80;;;;;;6155306;23;20052;-67
2023/04/15 11:53:45;;;;;;;4.63;2.05;;;12.10;95.70;;;;;;6155992;23;20419;-67
2023/04/15 11:56:17;;;;;;;6.35;1.33;;;12.20;95.60;;;;;;6153467;23;20001;-67
2023/04/15 11:58:45;;;;;;;4.22;1.38;;;12.20;95.40;;;;;;6151500;23;20140;-68
2023/04/15 12:01:11;;;;;;;7.50;1.25;;;12.20;95.20;;;;;;6151995;23;20013;-67
2023/04/15 12:03:44;;;;;;;4.18;1.40;;;12.20;95.40;;;;;;6154124;23;20002;-67
2023/04/15 12:06:20;;;;;;;3.03;1.60;;;12.10;95.50;;;;;;6155482;23;20029;-66
2023/04/15 12:08:50;;;;;;;5.10;1.75;;;12.10;95.40;;;;;;6155441;23;20017;-67
2023/04/15 12:11:32;;;;;;;3.20;1.33;;;12.10;95.40;;;;;;6155206;23;20417;-67
2023/04/15 12:14:03;;;;;;;3.95;1.13;;;12.00;95.60;;;;;;6155114;23;20005;-67
2023/04/15 12:16:29;;;;;;;3.75;1.05;;;12.00;95.80;;;;;;6155341;23;20021;-66
2023/04/15 12:19:00;;;;;;;4.32;0.90;;;12.10;96.00;;;;;;6154520;23;20006;-66
2023/04/15 12:21:28;;;;;;;2.33;0.90;;;12.10;96.10;;;;;;6155305;23;19998;-67
2023/04/15 12:23:54;;;;;;;3.33;1.35;;;12.10;95.90;;;;;;6155315;23;20005;-66
2023/04/15 12:26:47;;;;;;;4.65;1.10;;;12.10;95.60;;;;;;6154802;23;20001;-66
2023/04/15 12:29:15;;;;;;;2.60;1.30;;;12.20;95.60;;;;;;6155263;23;20006;-67
2023/04/15 12:31:49;;;;;;;2.65;1.23;;;12.20;95.60;;;;;;6155420;23;20025;-66
2023/04/15 12:34:16;;;;;;;3.88;1.30;;;12.20;95.70;;;;;;6155058;23;20001;-66
2023/04/15 12:36:42;;;;;;;3.22;1.35;;;12.20;95.70;;;;;;6154992;23;20012;-67
2023/04/15 12:39:08;;;;;;;4.50;1.55;;;12.30;95.70;;;;;;6154995;23;19998;-66
2023/04/15 12:41:34;;;;;;;4.80;1.80;;;12.30;95.40;;;;;;6153373;23;20021;-67
2023/04/15 12:44:00;;;;;;;3.58;1.27;;;12.30;95.20;;;;;;6152129;23;20009;-67
2023/04/15 12:46:26;;;;;;;3.85;1.80;;;12.40;95.30;;;;;;6152321;23;20202;-66
2023/04/15 12:48:52;;;;;;;5.03;1.52;;;12.50;95.50;;;;;;6155400;23;20033;-66
2023/04/15 12:51:18;;;;;;;3.60;1.15;;;12.60;95.70;;;;;;6154951;23;20026;-66